Terminal Aerodrome Forecast
Issued by NWS Blacksburg, VA

Current Version | Previous Version | Graphics & Text | Print | Product List | Glossary On
Versions: 1 2 3 4 5 6 7 8 9 10 11 12 13 14 15 16 17 18 19 20 21 22 23 24 25 26 27 28 29 30 31 32 33 34 35 36 37 38 39 40 41 42 43 44 45 46 47 48 49 50
000
FTUS41 KRNK 282322
TAFBLF
TAF
KBLF 282322Z 2900/2924 33003KT P6SM VCSH SCT040
     FM290300 16003KT P6SM BKN025
     FM290800 20003KT 3SM BR SCT003 SCT020
      TEMPO 2908/2912 1/4SM FG VV003
     FM291400 25003KT 5SM BR SCT007 BKN015
     FM291600 26007KT P6SM SCT015 BKN035
     FM292100 28005KT P6SM VCSH BKN050=

USA.gov is the U.S. government's official web portal to all federal, state and local government web resources and services.